Time;durP1;ratioP1;P1;durP2;ratioP2;P2;SDS_P1;SDS_P2;PMS_P1;PMS_P2;Temp;Humidity;BMP_temperature;BMP_pressure;BME280_temperature;BME280_humidity;BME280_pressure;Samples;Min_cycle;Max_cycle;Signal;HPM_P1;HPM_P2
2023/05/11 00:02:13;;;;;;;4.78;1.90;;;13.60;99.90;;;;;;4828379;29;20264;-81
2023/05/11 00:04:39;;;;;;;2.97;1.90;;;13.60;99.90;;;;;;4828363;29;20658;-81
2023/05/11 00:07:04;;;;;;;5.32;1.73;;;13.50;99.90;;;;;;4844872;29;20212;-81
2023/05/11 00:09:30;;;;;;;1.95;1.85;;;13.50;99.90;;;;;;4828376;29;20206;-81
2023/05/11 00:11:56;;;;;;;4.13;1.83;;;13.50;99.90;;;;;;4828280;29;20192;-81
2023/05/11 00:14:22;;;;;;;2.97;2.00;;;13.40;99.90;;;;;;4828652;29;20237;-81
2023/05/11 00:16:47;;;;;;;2.53;1.80;;;13.40;99.90;;;;;;4828720;29;20245;-81
2023/05/11 00:19:13;;;;;;;2.08;1.95;;;13.50;99.90;;;;;;4829410;29;20201;-82
2023/05/11 00:21:38;;;;;;;3.00;1.73;;;13.60;99.90;;;;;;4828598;29;20222;-81
2023/05/11 00:24:04;;;;;;;2.50;1.90;;;13.60;99.90;;;;;;4829171;29;20177;-81
2023/05/11 00:26:30;;;;;;;2.30;2.10;;;13.60;99.90;;;;;;4829256;29;20208;-81
2023/05/11 00:28:56;;;;;;;2.75;2.20;;;13.70;99.90;;;;;;4828348;29;20212;-81
2023/05/11 00:31:21;;;;;;;3.90;2.10;;;13.60;99.90;;;;;;4829074;29;20638;-81
2023/05/11 00:33:47;;;;;;;2.42;2.22;;;13.50;99.90;;;;;;4858695;29;20197;-81
2023/05/11 00:36:12;;;;;;;2.40;2.20;;;13.40;99.90;;;;;;4828233;29;20206;-81
2023/05/11 00:38:41;;;;;;;4.68;2.17;;;13.20;99.90;;;;;;4829223;29;20190;-81
2023/05/11 00:41:07;;;;;;;2.75;1.90;;;13.20;99.90;;;;;;4828899;29;20649;-81
2023/05/11 00:43:33;;;;;;;4.18;2.40;;;13.20;99.90;;;;;;4828886;29;20190;-81
2023/05/11 00:45:59;;;;;;;5.38;2.38;;;13.20;99.90;;;;;;4828058;29;20714;-81
2023/05/11 00:48:25;;;;;;;5.07;2.13;;;13.30;99.90;;;;;;4843880;29;20252;-81
2023/05/11 00:50:50;;;;;;;4.93;2.20;;;13.40;99.90;;;;;;4828859;29;20209;-81
2023/05/11 00:53:16;;;;;;;1.90;1.80;;;13.40;99.90;;;;;;4827602;29;20276;-81
2023/05/11 00:55:42;;;;;;;2.40;2.20;;;13.40;99.90;;;;;;4828548;29;20201;-81
2023/05/11 00:58:07;;;;;;;4.55;2.20;;;13.40;99.90;;;;;;4828422;29;20208;-81
2023/05/11 01:37:03;;;;;;;3.03;2.28;;;13.30;99.90;;;;;;5612521;23;20215;-88
2023/05/11 01:39:38;;;;;;;2.28;2.15;;;13.20;99.90;;;;;;4840058;29;20217;-85
2023/05/11 01:42:08;;;;;;;3.33;2.30;;;13.20;99.90;;;;;;4826200;29;20222;-85
2023/05/11 01:44:38;;;;;;;4.90;2.40;;;13.20;99.90;;;;;;4826009;29;20186;-85
2023/05/11 01:47:05;;;;;;;2.65;2.40;;;13.20;99.90;;;;;;4826023;29;20209;-85
2023/05/11 01:49:34;;;;;;;4.47;2.50;;;13.10;99.90;;;;;;4826711;29;20259;-85
2023/05/11 01:52:02;;;;;;;2.47;2.22;;;13.10;99.90;;;;;;4826291;29;20193;-85
2023/05/11 01:54:30;;;;;;;2.40;2.20;;;13.10;99.90;;;;;;4826282;29;20649;-85
2023/05/11 01:56:58;;;;;;;2.72;2.35;;;13.10;99.90;;;;;;4825891;29;20212;-85
2023/05/11 01:59:27;;;;;;;2.67;2.15;;;13.10;99.90;;;;;;4826157;29;20197;-85
2023/05/11 02:01:55;;;;;;;3.10;2.22;;;13.10;99.90;;;;;;4825933;29;20188;-85
2023/05/11 02:04:22;;;;;;;5.20;2.40;;;13.20;99.90;;;;;;4827550;29;20193;-85
2023/05/11 02:06:48;;;;;;;2.78;2.60;;;13.20;99.90;;;;;;4829381;29;20209;-85
2023/05/11 02:09:18;;;;;;;2.40;2.20;;;13.10;99.90;;;;;;4829052;29;20235;-85
2023/05/11 02:11:46;;;;;;;5.35;2.50;;;13.10;99.90;;;;;;4829907;29;20185;-85
2023/05/11 02:14:13;;;;;;;2.20;2.10;;;13.10;99.90;;;;;;4829922;29;20633;-85
2023/05/11 02:16:39;;;;;;;2.83;2.22;;;13.00;99.90;;;;;;4829396;29;20681;-85
2023/05/11 02:19:06;;;;;;;3.05;2.40;;;13.00;99.90;;;;;;4829615;29;20212;-85
2023/05/11 02:21:33;;;;;;;2.78;2.47;;;12.90;99.90;;;;;;4828879;29;20193;-85
2023/05/11 02:24:02;;;;;;;4.78;3.10;;;13.00;99.90;;;;;;4828876;29;20189;-85
2023/05/11 02:26:28;;;;;;;3.30;2.40;;;13.10;99.90;;;;;;4829238;29;20681;-85
2023/05/11 02:28:54;;;;;;;2.97;2.67;;;13.10;99.90;;;;;;4828959;29;20201;-85
2023/05/11 02:31:24;;;;;;;3.60;2.80;;;13.20;99.90;;;;;;4829555;29;20178;-85
2023/05/11 02:33:52;;;;;;;3.47;2.80;;;13.30;99.90;;;;;;4829647;29;20268;-84
2023/05/11 02:36:21;;;;;;;3.97;3.00;;;13.20;99.90;;;;;;4828615;29;20209;-85
2023/05/11 02:38:47;;;;;;;3.17;2.90;;;13.20;99.90;;;;;;4828831;29;20220;-84
2023/05/11 02:41:22;;;;;;;3.75;3.20;;;13.10;99.90;;;;;;4828508;29;20186;-85
2023/05/11 02:43:51;;;;;;;4.03;3.50;;;13.10;99.90;;;;;;4829336;29;20185;-85
2023/05/11 02:46:22;;;;;;;3.53;2.92;;;13.10;99.90;;;;;;4828919;29;20570;-85
2023/05/11 02:48:54;;;;;;;5.95;3.38;;;13.10;99.90;;;;;;4829333;29;20720;-85
2023/05/11 02:51:23;;;;;;;4.63;3.70;;;13.10;99.90;;;;;;4829247;29;20182;-85
2023/05/11 02:53:50;;;;;;;3.92;3.40;;;13.00;99.90;;;;;;4828709;29;20209;-85
2023/05/11 02:56:16;;;;;;;4.88;3.50;;;13.00;99.90;;;;;;4828796;29;20209;-85
2023/05/11 02:58:42;;;;;;;6.05;3.22;;;12.90;99.90;;;;;;4828408;29;20245;-85
2023/05/11 03:01:08;;;;;;;4.07;2.90;;;13.00;99.90;;;;;;4828846;29;20220;-85
2023/05/11 03:03:34;;;;;;;3.50;3.30;;;13.00;99.90;;;;;;4828753;29;20617;-85
2023/05/11 03:06:00;;;;;;;4.55;3.47;;;13.00;99.90;;;;;;4828821;29;20215;-85
2023/05/11 03:08:25;;;;;;;3.50;3.20;;;13.00;99.90;;;;;;4845007;29;20235;-85
2023/05/11 03:10:52;;;;;;;3.53;3.33;;;13.00;99.90;;;;;;4828923;29;20185;-85
2023/05/11 03:13:20;;;;;;;4.07;3.47;;;13.00;99.90;;;;;;4828470;29;20185;-85
2023/05/11 03:15:46;;;;;;;3.20;2.97;;;12.90;99.90;;;;;;4827289;29;20268;-85
2023/05/11 03:18:12;;;;;;;3.22;3.03;;;13.00;99.90;;;;;;4829148;29;20245;-85
2023/05/11 03:20:40;;;;;;;3.58;3.38;;;13.00;99.90;;;;;;4828487;29;20252;-85
2023/05/11 03:23:07;;;;;;;3.30;3.00;;;13.00;99.90;;;;;;4828162;29;20192;-85
2023/05/11 03:25:33;;;;;;;3.33;3.05;;;12.90;99.90;;;;;;4828649;29;20677;-85
2023/05/11 03:28:00;;;;;;;4.10;2.90;;;12.90;99.90;;;;;;4828091;29;20205;-85
2023/05/11 03:30:27;;;;;;;3.60;3.30;;;13.00;99.90;;;;;;4828532;29;20513;-85
2023/05/11 03:32:52;;;;;;;3.25;3.05;;;13.00;99.90;;;;;;4828741;29;20186;-85
2023/05/11 03:35:18;;;;;;;4.43;3.88;;;12.90;99.90;;;;;;4828904;29;20548;-85
2023/05/11 03:37:45;;;;;;;3.20;2.90;;;12.80;99.90;;;;;;4844183;29;20197;-85
2023/05/11 03:40:13;;;;;;;4.65;3.40;;;12.80;99.90;;;;;;4828283;29;20181;-85
2023/05/11 03:42:40;;;;;;;3.88;3.45;;;12.70;99.90;;;;;;4828419;29;20539;-85
2023/05/11 03:45:08;;;;;;;4.13;3.70;;;12.60;99.90;;;;;;4827895;29;20213;-85
2023/05/11 03:47:37;;;;;;;3.50;3.22;;;12.60;99.90;;;;;;4827738;29;20205;-85
2023/05/11 03:50:03;;;;;;;5.38;3.50;;;12.70;99.90;;;;;;4844109;29;20213;-85
2023/05/11 03:52:29;;;;;;;3.90;3.70;;;12.70;99.90;;;;;;4828064;29;20265;-85
2023/05/11 03:54:56;;;;;;;4.10;3.72;;;12.70;99.90;;;;;;4828424;29;20254;-85
2023/05/11 03:57:24;;;;;;;4.05;3.70;;;12.70;99.90;;;;;;4828342;29;20245;-85
2023/05/11 03:59:50;;;;;;;3.90;3.50;;;12.60;99.90;;;;;;4827400;29;20237;-85
2023/05/11 04:02:16;;;;;;;4.28;3.97;;;12.60;99.90;;;;;;4827689;29;20189;-85
2023/05/11 04:04:41;;;;;;;5.50;3.72;;;12.50;99.90;;;;;;4827490;29;20200;-85
2023/05/11 04:07:07;;;;;;;5.95;4.30;;;12.60;99.90;;;;;;4827241;29;20209;-85
2023/05/11 04:09:33;;;;;;;4.30;3.97;;;12.60;99.90;;;;;;4827715;29;20209;-85
2023/05/11 04:11:58;;;;;;;4.32;3.92;;;12.60;99.90;;;;;;4827356;29;20685;-85
2023/05/11 04:14:24;;;;;;;3.83;3.53;;;12.70;99.90;;;;;;4827615;29;20280;-85
2023/05/11 04:16:49;;;;;;;5.13;3.50;;;12.80;99.90;;;;;;4827865;29;20197;-85
2023/05/11 04:19:15;;;;;;;4.03;3.60;;;12.90;99.90;;;;;;4827174;29;20192;-85
2023/05/11 04:21:41;;;;;;;3.20;3.00;;;12.80;99.90;;;;;;4843410;29;20216;-85
2023/05/11 04:24:07;;;;;;;3.58;3.22;;;12.90;99.90;;;;;;4827312;29;20272;-85
2023/05/11 04:26:32;;;;;;;3.47;3.20;;;13.00;99.90;;;;;;4826718;29;20209;-85
2023/05/11 04:28:58;;;;;;;4.05;3.65;;;13.00;99.90;;;;;;4827112;29;20202;-86
2023/05/11 04:31:23;;;;;;;3.65;3.35;;;13.00;99.90;;;;;;4827067;29;20186;-85
2023/05/11 04:33:49;;;;;;;6.72;4.95;;;12.90;99.90;;;;;;4826897;29;20265;-85
2023/05/11 04:36:15;;;;;;;4.30;3.90;;;13.00;99.90;;;;;;4826761;29;20233;-86
2023/05/11 04:38:40;;;;;;;4.13;3.58;;;13.00;99.90;;;;;;4826933;29;20555;-85
2023/05/11 04:41:07;;;;;;;4.05;3.75;;;12.90;99.90;;;;;;4827188;29;20276;-85
2023/05/11 04:43:33;;;;;;;3.42;2.90;;;13.00;99.90;;;;;;4826764;29;20284;-86
2023/05/11 04:45:59;;;;;;;3.10;2.90;;;13.00;99.90;;;;;;4827046;29;20231;-85
2023/05/11 04:48:26;;;;;;;3.55;3.20;;;13.00;99.90;;;;;;4826608;29;20214;-85
2023/05/11 04:50:54;;;;;;;4.03;3.65;;;12.90;99.90;;;;;;4843285;29;20197;-85
2023/05/11 04:53:20;;;;;;;4.20;3.80;;;13.00;99.90;;;;;;4827000;29;20193;-84
2023/05/11 04:55:46;;;;;;;4.55;4.13;;;13.00;99.90;;;;;;4827261;29;20209;-84
2023/05/11 04:58:12;;;;;;;5.28;4.78;;;13.20;99.90;;;;;;4826658;29;20193;-85
2023/05/11 05:00:37;;;;;;;8.90;4.60;;;13.20;99.90;;;;;;4826708;29;20174;-84
2023/05/11 05:03:03;;;;;;;5.78;5.30;;;13.20;99.90;;;;;;4826962;29;20188;-85
2023/05/11 05:05:29;;;;;;;6.60;5.95;;;13.20;99.90;;;;;;4826538;29;20170;-85
2023/05/11 05:07:55;;;;;;;8.07;6.20;;;13.20;99.90;;;;;;4826833;29;20189;-84
2023/05/11 05:10:20;;;;;;;6.18;5.57;;;13.30;99.90;;;;;;4827976;29;20209;-85
2023/05/11 05:12:47;;;;;;;6.10;5.53;;;13.40;99.90;;;;;;4826980;29;20186;-84
2023/05/11 05:15:13;;;;;;;6.13;5.47;;;13.40;99.90;;;;;;4826264;29;20185;-85
2023/05/11 05:17:38;;;;;;;5.40;4.90;;;13.40;99.90;;;;;;4826725;29;20242;-84
2023/05/11 05:20:05;;;;;;;5.47;4.97;;;13.40;99.90;;;;;;4825891;29;20188;-85
2023/05/11 05:22:31;;;;;;;5.85;5.18;;;13.50;99.90;;;;;;4826132;29;20186;-85
2023/05/11 05:24:57;;;;;;;5.90;5.40;;;13.60;99.90;;;;;;4826191;29;20189;-84
2023/05/11 05:27:23;;;;;;;8.35;5.63;;;13.70;99.90;;;;;;4826577;29;20265;-85
2023/05/11 05:29:48;;;;;;;14.10;6.53;;;13.80;99.90;;;;;;4843084;29;20204;-84
2023/05/11 05:32:14;;;;;;;8.82;6.63;;;13.90;99.90;;;;;;4826256;29;20189;-85
2023/05/11 05:34:40;;;;;;;7.78;6.50;;;13.90;99.90;;;;;;4826551;29;20189;-85
2023/05/11 05:37:05;;;;;;;7.80;7.10;;;13.80;99.90;;;;;;4857050;29;20201;-84
2023/05/11 05:39:31;;;;;;;7.80;7.00;;;13.70;99.90;;;;;;4828165;29;20186;-84
2023/05/11 05:41:56;;;;;;;6.95;6.32;;;13.80;99.90;;;;;;4829995;29;20186;-84
2023/05/11 05:44:22;;;;;;;7.40;6.70;;;14.00;99.90;;;;;;4829575;29;20196;-85
2023/05/11 05:46:48;;;;;;;7.25;6.65;;;14.10;99.90;;;;;;4829847;29;20258;-85
2023/05/11 05:49:13;;;;;;;7.00;5.47;;;14.20;99.90;;;;;;4830271;29;20201;-85
2023/05/11 05:51:40;;;;;;;6.78;5.97;;;14.10;99.90;;;;;;4829722;29;20207;-84
2023/05/11 05:54:05;;;;;;;8.18;7.57;;;14.10;99.90;;;;;;4829494;29;20182;-84
2023/05/11 05:56:33;;;;;;;5.97;5.45;;;14.30;99.90;;;;;;4829107;29;20208;-84
2023/05/11 05:58:59;;;;;;;6.80;6.20;;;14.20;99.90;;;;;;4828127;29;20189;-85
2023/05/11 06:01:26;;;;;;;7.50;5.75;;;14.30;99.90;;;;;;4827791;29;20188;-84
2023/05/11 06:03:51;;;;;;;6.03;5.53;;;14.20;99.90;;;;;;4844377;29;20170;-84
2023/05/11 06:06:17;;;;;;;6.82;5.85;;;14.10;99.90;;;;;;4827491;29;20212;-85
2023/05/11 06:08:43;;;;;;;7.95;7.25;;;14.20;99.90;;;;;;4827491;29;20233;-84
2023/05/11 06:11:08;;;;;;;21.73;19.83;;;14.20;99.90;;;;;;4827588;29;20193;-85
2023/05/11 06:13:34;;;;;;;10.02;9.23;;;14.20;99.90;;;;;;4827655;29;20181;-84
2023/05/11 06:15:59;;;;;;;5.95;5.45;;;14.30;99.90;;;;;;4828258;29;20210;-84
2023/05/11 06:18:25;;;;;;;5.63;5.22;;;14.40;99.90;;;;;;4829071;29;20718;-84
2023/05/11 06:20:51;;;;;;;4.60;4.30;;;14.60;99.90;;;;;;4829945;29;20174;-84
2023/05/11 06:23:16;;;;;;;5.20;4.70;;;14.80;99.90;;;;;;4829400;29;20198;-84
2023/05/11 06:25:42;;;;;;;7.10;4.68;;;14.90;99.90;;;;;;4828913;29;20209;-84
2023/05/11 06:28:08;;;;;;;5.30;4.90;;;14.90;99.90;;;;;;4828935;29;20202;-84
2023/05/11 06:30:33;;;;;;;5.32;4.93;;;15.00;99.90;;;;;;4829266;29;20713;-84
2023/05/11 06:32:59;;;;;;;5.80;5.40;;;14.80;99.90;;;;;;4828929;29;20182;-84
2023/05/11 06:35:24;;;;;;;5.28;4.82;;;14.80;99.90;;;;;;4845917;29;20182;-84
2023/05/11 06:37:50;;;;;;;5.32;4.93;;;14.80;99.90;;;;;;4860159;29;20201;-84
2023/05/11 06:40:16;;;;;;;4.80;4.40;;;14.90;99.90;;;;;;4828796;29;20184;-84
2023/05/11 06:42:42;;;;;;;5.25;4.88;;;14.80;99.90;;;;;;4829050;29;20185;-84
2023/05/11 06:45:08;;;;;;;4.60;4.30;;;14.80;99.90;;;;;;4829050;29;20189;-84
2023/05/11 06:47:34;;;;;;;4.63;4.32;;;14.80;99.90;;;;;;4829005;29;20201;-84
2023/05/11 06:50:00;;;;;;;4.88;4.50;;;14.90;99.90;;;;;;4828097;29;20270;-84
2023/05/11 06:52:26;;;;;;;5.05;4.55;;;14.90;99.90;;;;;;4829089;29;20230;-84
2023/05/11 06:54:51;;;;;;;6.10;4.63;;;14.90;99.90;;;;;;4830050;29;20207;-84
